14:37
Airports
History
Links
Donate
Help keep this website running!
PayPal
Bitcoin
This page is community maintained. The information is intended for PC simulator navigation or reference.
Always use approved charts for navigation.
CT10
Metenosky Aviation Field
Metenosky Aviation Field (CT10)
Coventry, Connecticut, United States (6238)
4
Lat/Lng:41° 44' 53.35" N / 72° 17' 39.29" W
41.748154 / -72.294246
Elevation:550'ft / 168mMSL
ID / ICAO:CT10
Runways:1
Longest:(05-23) 611.5m / 2,006ft Grass
Distance To
Airport ID:
Nearby VORs <50NM
Nearby NDBs
Nearby WeatherUpdated 08-22-17 14:04 GMT
Nearby weather at KIJD, Windham located 5.9 nautical miles from CT10
Altimeter: 29.99
Visibility: 9.0 statute miles
Wind: 7 knots (180°)
Temp: 26°c 79°f
Humidity: 78.7%

METAR: KIJD 221404Z AUTO 18007KT 9SM OVC016 26/22 A2999 RMK AO2 T02560222

(Powered by phpweather)
Runway 05 / 23
Dimensions:611.5 x 91.4m 2006' x 300'ft
Surface:Grass
Runway 05 [A]Runway 23 [B]
Heading:029°TH 209°TH
Lat:
Lng:
41° 44' 44.8"N
72° 17' 45.9"W
41° 45' 1.91"N
72° 17' 32.67"W
User Notes and Comments
Google Map
Nearby Airports
(U) Windham 5.9 NM
KIJD (WX) E 92°
(R) Heckler Field 6.3 NM
CT09 NW 306°
(R) Skis Landing Area 12.1 NM
CT07 S 182°
(R) Rankl Field 12.5 NM
CT20 SW 214°
4 Salmon River Airfield 13.4 NM
9B8 SW 214°
(R) Gager Field 13.6 NM
CT36 SSE 158°
(U) Ellington 14.8 NM
7B9 NW 325°
VFR Chart
Flight Planning at SkyVector.com